Time;durP1;ratioP1;P1;durP2;ratioP2;P2;SDS_P1;SDS_P2;PMS_P1;PMS_P2;Temp;Humidity;BMP_temperature;BMP_pressure;BME280_temperature;BME280_humidity;BME280_pressure;Samples;Min_cycle;Max_cycle;Signal;HPM_P1;HPM_P2
2022/12/16 00:01:07;;;;;;;36.97;19.93;;;;;;;-1.71;100.00;96930.44;5110914;28;20212;-80
2022/12/16 00:03:34;;;;;;;40.87;20.87;;;;;;;-1.76;100.00;96932.34;5111950;28;20209;-80
2022/12/16 00:06:03;;;;;;;40.63;21.13;;;;;;;-1.77;100.00;96936.69;5112041;28;20232;-80
2022/12/16 00:08:33;;;;;;;39.63;21.53;;;;;;;-1.74;100.00;96940.91;5111798;28;20290;-81
2022/12/16 00:10:59;;;;;;;41.40;23.03;;;;;;;-1.71;100.00;96945.97;5111380;28;20212;-80
2022/12/16 00:13:27;;;;;;;41.07;20.57;;;;;;;-1.70;100.00;96943.31;5111788;28;20268;-80
2022/12/16 00:15:53;;;;;;;38.23;21.33;;;;;;;-1.67;100.00;96950.13;5111472;28;20236;-80
2022/12/16 00:18:20;;;;;;;38.23;21.30;;;;;;;-1.69;100.00;96950.19;5111814;28;20216;-80
2022/12/16 00:20:47;;;;;;;38.57;20.97;;;;;;;-1.74;100.00;96946.06;5111269;28;20219;-80
2022/12/16 00:23:15;;;;;;;34.33;21.10;;;;;;;-1.78;100.00;96947.13;5111737;28;20232;-80
2022/12/16 00:25:42;;;;;;;41.13;22.03;;;;;;;-1.81;100.00;96934.28;5111369;28;20238;-80
2022/12/16 00:28:09;;;;;;;38.40;21.97;;;;;;;-1.82;100.00;96932.59;5111579;28;20220;-80
2022/12/16 00:30:35;;;;;;;44.40;21.93;;;;;;;-1.70;100.00;96932.13;5111574;28;20216;-80
2022/12/16 00:33:02;;;;;;;37.80;20.43;;;;;;;-1.63;100.00;96936.13;5111851;28;20211;-80
2022/12/16 00:35:29;;;;;;;41.77;22.27;;;;;;;-1.66;100.00;96933.69;5111577;28;20212;-80
2022/12/16 00:37:56;;;;;;;38.90;21.00;;;;;;;-1.67;100.00;96939.78;5111509;28;20216;-80
2022/12/16 00:40:24;;;;;;;42.70;22.47;;;;;;;-1.66;100.00;96944.88;5111070;28;20208;-80
2022/12/16 00:42:50;;;;;;;38.37;21.67;;;;;;;-1.64;100.00;96937.03;5111350;28;20724;-80
2022/12/16 00:45:17;;;;;;;39.73;20.93;;;;;;;-1.66;100.00;96938.88;5111284;28;20275;-80
2022/12/16 00:47:43;;;;;;;39.73;22.43;;;;;;;-1.72;100.00;96944.28;5111658;28;20208;-80
2022/12/16 00:50:11;;;;;;;36.13;21.03;;;;;;;-1.72;100.00;96949.47;5111387;28;20207;-80
2022/12/16 00:52:37;;;;;;;37.13;20.53;;;;;;;-1.63;100.00;96954.25;5111508;28;20219;-80
2022/12/16 00:55:04;;;;;;;35.60;21.97;;;;;;;-1.67;100.00;96955.31;5111287;28;20212;-80
2022/12/16 00:57:32;;;;;;;35.43;20.30;;;;;;;-1.67;100.00;96960.50;5111348;28;20227;-80
2022/12/16 00:59:59;;;;;;;39.87;21.97;;;;;;;-1.68;100.00;96966.56;5111518;28;20290;-80
2022/12/16 01:02:25;;;;;;;38.17;21.50;;;;;;;-1.61;100.00;96962.84;5111397;28;20309;-80
2022/12/16 01:04:52;;;;;;;39.87;21.53;;;;;;;-1.60;100.00;96970.53;5111797;28;20231;-80
2022/12/16 01:07:18;;;;;;;36.40;21.20;;;;;;;-1.57;100.00;96972.16;5111592;28;20236;-81
2022/12/16 01:09:45;;;;;;;39.27;22.10;;;;;;;-1.53;100.00;96971.13;5111746;28;20651;-81
2022/12/16 01:12:11;;;;;;;41.00;21.77;;;;;;;-1.68;100.00;96982.09;5114420;28;20209;-80
2022/12/16 01:14:39;;;;;;;38.97;21.97;;;;;;;-1.70;100.00;96983.91;5115285;28;20347;-80
2022/12/16 01:17:06;;;;;;;40.40;23.97;;;;;;;-1.75;100.00;96985.81;5115490;28;20233;-80
2022/12/16 01:19:32;;;;;;;37.53;21.20;;;;;;;-1.72;100.00;96977.94;5115353;28;20224;-80
2022/12/16 01:21:59;;;;;;;39.47;21.77;;;;;;;-1.69;100.00;96988.19;5115391;28;20206;-80
2022/12/16 01:24:25;;;;;;;41.73;22.20;;;;;;;-1.69;100.00;96985.59;5115306;28;20209;-80
2022/12/16 01:26:52;;;;;;;35.90;21.13;;;;;;;-1.63;100.00;96985.34;5115963;28;20311;-80
2022/12/16 01:29:18;;;;;;;37.83;21.77;;;;;;;-1.61;100.00;96989.56;5116344;28;20220;-80
2022/12/16 01:31:46;;;;;;;37.17;19.87;;;;;;;-1.58;100.00;96988.59;5117311;28;20729;-80
2022/12/16 01:34:13;;;;;;;36.00;19.63;;;;;;;-1.65;100.00;96976.81;5117409;28;20211;-80
2022/12/16 01:36:39;;;;;;;38.70;20.97;;;;;;;-1.63;100.00;96985.34;5116471;28;20241;-81
2022/12/16 01:39:06;;;;;;;36.07;21.40;;;;;;;-1.63;100.00;96985.34;5116376;28;20206;-80
2022/12/16 01:41:32;;;;;;;38.13;22.03;;;;;;;-1.69;100.00;96980.41;5115208;28;20671;-80
2022/12/16 01:44:14;;;;;;;40.43;22.80;;;;;;;-1.80;100.00;96982.56;5115608;28;20212;-81
2022/12/16 01:46:41;;;;;;;36.97;22.13;;;;;;;-1.70;100.00;96989.09;5114789;28;20302;-80
2022/12/16 01:49:17;;;;;;;37.00;20.83;;;;;;;-1.72;100.00;96993.50;5114862;28;20213;-80
2022/12/16 01:51:44;;;;;;;36.57;22.43;;;;;;;-1.73;100.00;96999.56;5114723;28;20221;-80
2022/12/16 01:54:14;;;;;;;39.53;22.03;;;;;;;-1.76;100.00;97004.88;5115055;28;20205;-80
2022/12/16 01:56:43;;;;;;;40.50;22.13;;;;;;;-1.79;100.00;97013.59;5114831;28;20227;-81
2022/12/16 01:59:11;;;;;;;37.13;21.10;;;;;;;-1.69;100.00;97014.06;5114781;28;20209;-82
2022/12/16 02:01:38;;;;;;;40.73;21.70;;;;;;;-1.71;100.00;97018.47;5112463;28;20597;-79
2022/12/16 02:04:04;;;;;;;40.37;22.00;;;;;;;-1.65;100.00;97018.25;5114598;28;20206;-81
2022/12/16 02:06:33;;;;;;;40.60;22.93;;;;;;;-1.68;100.00;97023.53;5114450;28;20233;-79
2022/12/16 02:09:05;;;;;;;38.47;21.53;;;;;;;-1.64;100.00;97025.09;5114324;28;20215;-82
2022/12/16 02:12:19;;;;;;;38.70;22.10;;;;;;;-1.54;100.00;97016.09;5114486;28;20267;-82
2022/12/16 02:15:03;;;;;;;36.97;21.40;;;;;;;-1.65;100.00;97016.47;5114502;28;20194;-80
2022/12/16 02:17:38;;;;;;;38.97;22.03;;;;;;;-1.69;100.00;97029.63;5114195;28;20717;-81
2022/12/16 02:20:22;;;;;;;40.10;21.23;;;;;;;-1.63;100.00;97031.97;5114170;28;20676;-81
2022/12/16 02:23:05;;;;;;;35.93;20.47;;;;;;;-1.61;100.00;97032.78;5113614;28;20192;-82
2022/12/16 02:25:57;;;;;;;36.83;20.73;;;;;;;-1.66;100.00;97034.69;5114254;28;20725;-81
2022/12/16 02:28:37;;;;;;;35.17;20.70;;;;;;;-1.66;100.00;97032.94;5115403;28;20209;-81
2022/12/16 02:31:19;;;;;;;38.40;20.77;;;;;;;-1.65;100.00;97032.03;5119615;28;20682;-81
2022/12/16 02:34:10;;;;;;;41.70;21.83;;;;;;;-1.63;100.00;97024.19;5114274;28;20228;-81
2022/12/16 02:36:55;;;;;;;38.67;21.50;;;;;;;-1.65;100.00;97023.41;5102896;28;20248;-81
2022/12/16 02:39:25;;;;;;;37.57;20.50;;;;;;;-1.66;100.00;97030.34;5113031;28;20211;-81
2022/12/16 02:41:59;;;;;;;34.07;20.73;;;;;;;-1.68;100.00;97033.88;5113302;28;20217;-81
2022/12/16 02:44:35;;;;;;;34.43;20.83;;;;;;;-1.53;100.00;97025.53;5113400;28;20208;-81
2022/12/16 02:47:03;;;;;;;38.87;21.07;;;;;;;-1.62;100.00;97020.69;5113177;28;20239;-81
2022/12/16 02:49:50;;;;;;;39.50;23.13;;;;;;;-1.58;100.00;97019.69;5113187;28;20212;-81
2022/12/16 02:52:20;;;;;;;36.60;20.47;;;;;;;-1.59;100.00;97024.00;5113062;28;20201;-81
2022/12/16 02:54:48;;;;;;;37.87;21.40;;;;;;;-1.59;100.00;97033.53;5113192;28;20598;-81
2022/12/16 02:57:41;;;;;;;42.37;20.23;;;;;;;-1.58;100.00;97037.81;5112885;28;20735;-81
2022/12/16 03:00:11;;;;;;;35.63;20.37;;;;;;;-1.61;100.00;97035.38;5112917;28;20598;-81
2022/12/16 03:02:48;;;;;;;36.80;21.67;;;;;;;-1.61;100.00;97035.38;5112985;28;20211;-81
2022/12/16 03:05:20;;;;;;;39.30;21.40;;;;;;;-1.64;100.00;97045.81;5112603;28;20210;-81
2022/12/16 03:07:49;;;;;;;38.23;21.50;;;;;;;-1.61;100.00;97050.91;5112754;28;20239;-81
2022/12/16 03:10:19;;;;;;;38.47;21.43;;;;;;;-1.68;100.00;97054.59;5112553;28;20236;-81
2022/12/16 03:12:46;;;;;;;33.40;20.37;;;;;;;-1.59;100.00;97052.50;5112678;28;20707;-81
2022/12/16 03:15:16;;;;;;;34.73;19.47;;;;;;;-1.50;100.00;97048.72;5112678;28;20235;-81
2022/12/16 03:17:47;;;;;;;36.00;20.23;;;;;;;-1.57;100.00;97047.28;5112405;28;20688;-81
2022/12/16 03:20:22;;;;;;;34.17;19.53;;;;;;;-1.53;100.00;97048.84;5112430;28;20593;-81
2022/12/16 03:22:52;;;;;;;38.27;20.97;;;;;;;-1.55;100.00;97040.28;5112648;28;20213;-81
2022/12/16 03:25:21;;;;;;;33.17;19.63;;;;;;;-1.58;100.00;97045.59;5112220;28;20206;-81
2022/12/16 03:27:55;;;;;;;33.67;19.23;;;;;;;-1.56;100.00;97059.31;5112490;28;20600;-81
2022/12/16 03:30:27;;;;;;;33.47;18.83;;;;;;;-1.61;100.00;97049.13;5112265;28;20216;-81
2022/12/16 03:32:59;;;;;;;33.27;18.60;;;;;;;-1.63;100.00;97057.88;5112344;28;20219;-81
2022/12/16 03:35:33;;;;;;;32.83;18.73;;;;;;;-1.61;100.00;97050.91;5112071;28;20211;-81
2022/12/16 03:38:01;;;;;;;26.70;16.37;;;;;;;-1.58;100.00;97061.13;5112422;28;20259;-81
2022/12/16 03:40:29;;;;;;;29.07;17.20;;;;;;;-1.67;100.00;97053.72;5111773;28;20216;-81
2022/12/16 03:42:57;;;;;;;29.30;16.53;;;;;;;-1.74;100.00;97055.69;5112325;28;20205;-81
2022/12/16 03:45:27;;;;;;;32.20;18.97;;;;;;;-1.76;100.00;97064.41;5112118;28;20220;-81
2022/12/16 03:47:58;;;;;;;27.87;17.53;;;;;;;-1.83;100.00;97071.56;5112143;28;20775;-81
2022/12/16 03:50:29;;;;;;;27.40;16.40;;;;;;;-1.77;100.00;97071.34;5112081;28;20212;-81
2022/12/16 03:52:56;;;;;;;30.93;16.57;;;;;;;-1.73;100.00;97069.50;5112309;28;20217;-81
2022/12/16 03:55:22;;;;;;;30.33;16.93;;;;;;;-1.76;100.00;97067.00;5112034;28;20581;-81
2022/12/16 03:57:49;;;;;;;29.60;16.97;;;;;;;-1.76;100.00;97077.38;5111897;28;20679;-81
2022/12/16 04:00:16;;;;;;;28.63;16.73;;;;;;;-1.89;100.00;97078.72;5111877;28;20209;-81
2022/12/16 04:02:43;;;;;;;31.63;17.93;;;;;;;-1.96;100.00;97091.03;5111652;28;20213;-81
2022/12/16 04:05:15;;;;;;;29.43;18.00;;;;;;;-1.95;100.00;97097.09;5111864;28;20208;-81
2022/12/16 04:07:41;;;;;;;28.77;17.70;;;;;;;-1.86;100.00;97091.53;5111805;28;20699;-81
2022/12/16 04:10:09;;;;;;;28.97;16.93;;;;;;;-1.83;100.00;97101.81;5111590;28;20223;-81
2022/12/16 04:27:23;;;;;;;29.90;16.60;;;;;;;-1.95;100.00;97107.44;5111596;28;20390;-81
2022/12/16 04:29:21;;;;;;;26.70;16.60;;;;;;;-1.93;100.00;97111.66;5111037;28;20206;-81
2022/12/16 04:31:47;;;;;;;28.43;17.07;;;;;;;-1.91;100.00;97109.03;5111646;28;20207;-81
2022/12/16 04:34:25;;;;;;;26.20;15.77;;;;;;;-1.93;100.00;97116.84;5111451;28;20219;-81
